CheckWX is a tool to help pilots better visualize weather data.  It is not intended as a substitute for an official pre-flight weather briefing.

01:08:29 UTC

HSSS TAF
Khartoum International Airport
Khartoum, Sudan
TAF HSSS 232300Z 2400/2506 36008G18KT CAVOK TEMPO 2405/2409 6000 NSC

Feb-24@
00:00 UTC

Feb-24 @ 00:00 UTC

Feb-25@
06:00 UTC

Feb-25 @ 06:00 UTC

TAF HSSS 232300Z 2400/2506 36008G18KT CAVOK
Wind
  • 360° at 8 KTS
  • {Gusting to 18 KTS
Conditions
No significant weather
Cloud Levels
  • No significant clouds

Feb-24@
05:00 UTC

Feb-24 @ 05:00 UTC

Feb-24@
09:00 UTC

Feb-24 @ 09:00 UTC

TEMPO 2405/2409 6000 NSC

Temporary

Temporary Changes expected for less than half the time period

Cloud Levels
  • No significant clouds